sensor_id;sensor_type;location;lat;lon;timestamp;pressure;altitude;pressure_sealevel;temperature;humidity
25855;BME280;13680;49.936;11.344;2022-08-01T00:01:36;96612.94;;;20.88;66.06
25855;BME280;13680;49.936;11.344;2022-08-01T00:04:01;96609.41;;;20.87;65.82
25855;BME280;13680;49.936;11.344;2022-08-01T00:06:27;96606.31;;;20.89;65.46
25855;BME280;13680;49.936;11.344;2022-08-01T00:08:52;96609.75;;;20.82;65.54
25855;BME280;13680;49.936;11.344;2022-08-01T00:11:17;96618.06;;;20.66;66.14
25855;BME280;13680;49.936;11.344;2022-08-01T00:13:43;96619.59;;;20.64;66.12
25855;BME280;13680;49.936;11.344;2022-08-01T00:16:08;96619.09;;;20.54;66.40
25855;BME280;13680;49.936;11.344;2022-08-01T00:18:34;96626.78;;;20.49;65.98
25855;BME280;13680;49.936;11.344;2022-08-01T00:21:01;96623.84;;;20.34;65.85
25855;BME280;13680;49.936;11.344;2022-08-01T00:23:26;96621.53;;;20.09;65.77
25855;BME280;13680;49.936;11.344;2022-08-01T00:25:52;96623.50;;;20.13;66.27
25855;BME280;13680;49.936;11.344;2022-08-01T00:28:17;96625.88;;;20.14;66.48
25855;BME280;13680;49.936;11.344;2022-08-01T00:30:43;96612.72;;;20.20;66.48
25855;BME280;13680;49.936;11.344;2022-08-01T00:33:08;96622.38;;;20.14;66.57
25855;BME280;13680;49.936;11.344;2022-08-01T00:35:33;96628.44;;;20.03;66.84
25855;BME280;13680;49.936;11.344;2022-08-01T00:37:59;96614.38;;;20.01;66.60
25855;BME280;13680;49.936;11.344;2022-08-01T00:40:24;96621.84;;;20.04;66.36
25855;BME280;13680;49.936;11.344;2022-08-01T00:42:49;96619.50;;;20.06;66.42
25855;BME280;13680;49.936;11.344;2022-08-01T00:45:15;96618.31;;;20.04;66.89
25855;BME280;13680;49.936;11.344;2022-08-01T00:47:40;96613.59;;;20.01;67.10
25855;BME280;13680;49.936;11.344;2022-08-01T00:50:06;96614.19;;;20.14;66.69
25855;BME280;13680;49.936;11.344;2022-08-01T00:52:32;96616.84;;;20.10;66.70
25855;BME280;13680;49.936;11.344;2022-08-01T00:54:58;96615.69;;;20.11;66.52
25855;BME280;13680;49.936;11.344;2022-08-01T00:57:24;96618.81;;;20.09;66.31
25855;BME280;13680;49.936;11.344;2022-08-01T00:59:50;96618.38;;;20.07;66.48
25855;BME280;13680;49.936;11.344;2022-08-01T01:02:17;96619.50;;;20.06;66.78
25855;BME280;13680;49.936;11.344;2022-08-01T01:04:43;96612.06;;;20.03;66.77
25855;BME280;13680;49.936;11.344;2022-08-01T01:09:58;96615.50;;;20.00;67.22
25855;BME280;13680;49.936;11.344;2022-08-01T01:12:34;96618.97;;;19.97;67.42
25855;BME280;13680;49.936;11.344;2022-08-01T01:17:48;96613.88;;;19.95;68.26
25855;BME280;13680;49.936;11.344;2022-08-01T01:20:17;96613.97;;;19.99;68.18
25855;BME280;13680;49.936;11.344;2022-08-01T01:28:12;96619.28;;;19.92;68.30
25855;BME280;13680;49.936;11.344;2022-08-01T01:30:43;96614.53;;;19.89;68.25
25855;BME280;13680;49.936;11.344;2022-08-01T01:33:10;96620.75;;;19.86;68.22
25855;BME280;13680;49.936;11.344;2022-08-01T01:35:42;96617.44;;;19.76;68.75
25855;BME280;13680;49.936;11.344;2022-08-01T01:38:24;96620.53;;;19.75;68.56
25855;BME280;13680;49.936;11.344;2022-08-01T01:40:51;96623.97;;;19.72;68.59
25855;BME280;13680;49.936;11.344;2022-08-01T01:43:18;96617.16;;;19.62;68.83
25855;BME280;13680;49.936;11.344;2022-08-01T01:45:46;96629.78;;;19.47;69.27
25855;BME280;13680;49.936;11.344;2022-08-01T01:48:17;96634.34;;;19.43;69.59
25855;BME280;13680;49.936;11.344;2022-08-01T01:50:46;96630.84;;;19.42;69.59
25855;BME280;13680;49.936;11.344;2022-08-01T01:53:13;96633.84;;;19.37;69.81
25855;BME280;13680;49.936;11.344;2022-08-01T01:55:41;96627.19;;;19.35;70.09
25855;BME280;13680;49.936;11.344;2022-08-01T01:58:12;96631.88;;;19.34;69.87
25855;BME280;13680;49.936;11.344;2022-08-01T02:00:40;96631.91;;;19.38;69.56
25855;BME280;13680;49.936;11.344;2022-08-01T02:03:09;96640.81;;;19.35;69.79
25855;BME280;13680;49.936;11.344;2022-08-01T02:05:36;96633.00;;;19.33;70.05
25855;BME280;13680;49.936;11.344;2022-08-01T02:08:04;96634.59;;;19.34;69.85
25855;BME280;13680;49.936;11.344;2022-08-01T02:10:31;96646.19;;;19.31;69.56
25855;BME280;13680;49.936;11.344;2022-08-01T02:12:58;96639.53;;;19.28;69.77
25855;BME280;13680;49.936;11.344;2022-08-01T02:15:26;96642.19;;;19.25;70.07
25855;BME280;13680;49.936;11.344;2022-08-01T02:17:54;96641.75;;;19.23;70.15
25855;BME280;13680;49.936;11.344;2022-08-01T02:20:21;96637.38;;;19.18;70.27
25855;BME280;13680;49.936;11.344;2022-08-01T02:22:49;96645.75;;;19.09;70.75
25855;BME280;13680;49.936;11.344;2022-08-01T02:25:25;96643.56;;;19.15;70.56
25855;BME280;13680;49.936;11.344;2022-08-01T02:27:59;96645.84;;;19.13;70.54
25855;BME280;13680;49.936;11.344;2022-08-01T02:30:32;96652.06;;;19.13;70.52
25855;BME280;13680;49.936;11.344;2022-08-01T02:33:05;96647.34;;;19.10;70.38
25855;BME280;13680;49.936;11.344;2022-08-01T02:35:33;96656.59;;;19.06;70.38
25855;BME280;13680;49.936;11.344;2022-08-01T02:38:01;96648.69;;;19.01;70.71
25855;BME280;13680;49.936;11.344;2022-08-01T02:40:32;96653.28;;;18.96;70.92
25855;BME280;13680;49.936;11.344;2022-08-01T02:43:02;96650.94;;;18.95;70.71
25855;BME280;13680;49.936;11.344;2022-08-01T02:45:29;96660.41;;;18.85;71.09
25855;BME280;13680;49.936;11.344;2022-08-01T02:48:00;96668.50;;;18.81;71.18
25855;BME280;13680;49.936;11.344;2022-08-01T02:50:28;96655.16;;;18.76;71.38
25855;BME280;13680;49.936;11.344;2022-08-01T02:52:55;96661.97;;;18.67;71.63
25855;BME280;13680;49.936;11.344;2022-08-01T02:55:22;96671.19;;;18.62;72.25
25855;BME280;13680;49.936;11.344;2022-08-01T02:57:50;96669.19;;;18.59;72.29
25855;BME280;13680;49.936;11.344;2022-08-01T03:00:16;96667.69;;;18.61;72.23
25855;BME280;13680;49.936;11.344;2022-08-01T03:02:44;96662.56;;;18.60;72.17
25855;BME280;13680;49.936;11.344;2022-08-01T03:05:11;96664.88;;;18.58;72.19
25855;BME280;13680;49.936;11.344;2022-08-01T03:07:38;96663.66;;;18.55;72.20
25855;BME280;13680;49.936;11.344;2022-08-01T03:10:05;96665.41;;;18.47;71.94
25855;BME280;13680;49.936;11.344;2022-08-01T03:12:33;96668.56;;;18.49;72.05
25855;BME280;13680;49.936;11.344;2022-08-01T03:15:00;96664.53;;;18.43;72.42
25855;BME280;13680;49.936;11.344;2022-08-01T03:17:28;96667.50;;;18.38;72.71
25855;BME280;13680;49.936;11.344;2022-08-01T03:19:56;96663.50;;;18.32;72.93
25855;BME280;13680;49.936;11.344;2022-08-01T03:22:24;96670.25;;;18.22;73.09
25855;BME280;13680;49.936;11.344;2022-08-01T03:24:52;96668.78;;;18.25;73.20
25855;BME280;13680;49.936;11.344;2022-08-01T03:27:19;96677.38;;;18.27;72.92
25855;BME280;13680;49.936;11.344;2022-08-01T03:29:47;96677.19;;;18.20;73.29
25855;BME280;13680;49.936;11.344;2022-08-01T03:32:14;96677.19;;;18.20;73.24
25855;BME280;13680;49.936;11.344;2022-08-01T03:34:40;96678.69;;;18.17;73.26
25855;BME280;13680;49.936;11.344;2022-08-01T03:37:10;96684.91;;;18.18;73.41
25855;BME280;13680;49.936;11.344;2022-08-01T03:39:47;96684.22;;;18.21;72.97
25855;BME280;13680;49.936;11.344;2022-08-01T03:42:16;96690.53;;;18.09;73.73
25855;BME280;13680;49.936;11.344;2022-08-01T03:44:48;96686.66;;;18.10;73.41
25855;BME280;13680;49.936;11.344;2022-08-01T03:47:18;96687.38;;;18.07;73.49
25855;BME280;13680;49.936;11.344;2022-08-01T03:49:48;96682.09;;;17.98;73.79
25855;BME280;13680;49.936;11.344;2022-08-01T03:52:15;96690.63;;;17.96;73.63
25855;BME280;13680;49.936;11.344;2022-08-01T03:54:45;96683.47;;;17.92;73.55
25855;BME280;13680;49.936;11.344;2022-08-01T03:57:11;96690.94;;;17.95;73.50
25855;BME280;13680;49.936;11.344;2022-08-01T03:59:37;96688.22;;;17.95;73.97
25855;BME280;13680;49.936;11.344;2022-08-01T04:02:04;96682.78;;;17.95;74.02
25855;BME280;13680;49.936;11.344;2022-08-01T04:04:31;96685.72;;;17.90;73.76
25855;BME280;13680;49.936;11.344;2022-08-01T04:06:57;96689.94;;;17.87;74.58
25855;BME280;13680;49.936;11.344;2022-08-01T04:09:22;96688.63;;;17.81;74.62
25855;BME280;13680;49.936;11.344;2022-08-01T04:11:48;96699.25;;;17.86;74.75
25855;BME280;13680;49.936;11.344;2022-08-01T04:14:14;96691.78;;;17.83;74.54
25855;BME280;13680;49.936;11.344;2022-08-01T04:16:39;96694.97;;;17.85;74.83
25855;BME280;13680;49.936;11.344;2022-08-01T04:19:05;96697.31;;;17.87;74.63
25855;BME280;13680;49.936;11.344;2022-08-01T04:21:34;96701.88;;;17.82;74.74
25855;BME280;13680;49.936;11.344;2022-08-01T04:24:08;96706.72;;;17.89;74.75
25855;BME280;13680;49.936;11.344;2022-08-01T04:26:36;96710.22;;;17.90;75.26
25855;BME280;13680;49.936;11.344;2022-08-01T04:29:03;96710.91;;;17.99;75.21
25855;BME280;13680;49.936;11.344;2022-08-01T04:31:30;96711.16;;;18.10;74.51
25855;BME280;13680;49.936;11.344;2022-08-01T04:33:57;96711.78;;;18.19;74.97
25855;BME280;13680;49.936;11.344;2022-08-01T04:36:24;96707.47;;;18.34;74.44
25855;BME280;13680;49.936;11.344;2022-08-01T04:38:56;96710.81;;;18.43;74.00
25855;BME280;13680;49.936;11.344;2022-08-01T04:41:23;96710.72;;;18.56;73.45
25855;BME280;13680;49.936;11.344;2022-08-01T04:43:49;96717.22;;;18.67;74.25
25855;BME280;13680;49.936;11.344;2022-08-01T04:46:17;96722.22;;;18.65;75.27
25855;BME280;13680;49.936;11.344;2022-08-01T04:48:43;96726.53;;;18.66;75.27
25855;BME280;13680;49.936;11.344;2022-08-01T04:51:16;96729.78;;;18.72;75.53
25855;BME280;13680;49.936;11.344;2022-08-01T04:53:43;96737.50;;;18.86;75.56
25855;BME280;13680;49.936;11.344;2022-08-01T04:56:09;96734.41;;;18.87;75.48
25855;BME280;13680;49.936;11.344;2022-08-01T04:58:34;96736.97;;;18.96;75.07
25855;BME280;13680;49.936;11.344;2022-08-01T05:01:00;96732.84;;;19.02;75.00
25855;BME280;13680;49.936;11.344;2022-08-01T05:03:25;96730.44;;;19.17;74.70
25855;BME280;13680;49.936;11.344;2022-08-01T05:05:50;96729.50;;;19.28;74.44
25855;BME280;13680;49.936;11.344;2022-08-01T05:08:16;96736.69;;;19.37;74.11
25855;BME280;13680;49.936;11.344;2022-08-01T05:10:41;96732.31;;;19.52;73.55
25855;BME280;13680;49.936;11.344;2022-08-01T05:13:07;96729.72;;;19.59;73.64
25855;BME280;13680;49.936;11.344;2022-08-01T05:15:34;96732.25;;;19.68;74.09
25855;BME280;13680;49.936;11.344;2022-08-01T05:18:02;96733.63;;;19.77;74.53
25855;BME280;13680;49.936;11.344;2022-08-01T05:20:27;96737.63;;;19.84;75.25
25855;BME280;13680;49.936;11.344;2022-08-01T05:22:52;96732.47;;;19.98;74.64
25855;BME280;13680;49.936;11.344;2022-08-01T05:25:18;96737.63;;;20.03;74.37
25855;BME280;13680;49.936;11.344;2022-08-01T05:27:43;96739.75;;;20.14;74.25
25855;BME280;13680;49.936;11.344;2022-08-01T05:30:09;96730.97;;;20.24;73.98
25855;BME280;13680;49.936;11.344;2022-08-01T05:32:35;96737.72;;;20.30;73.83
25855;BME280;13680;49.936;11.344;2022-08-01T05:35:01;96744.00;;;20.34;74.17
25855;BME280;13680;49.936;11.344;2022-08-01T05:37:27;96747.34;;;20.47;74.07
25855;BME280;13680;49.936;11.344;2022-08-01T05:39:52;96745.66;;;20.62;73.63
25855;BME280;13680;49.936;11.344;2022-08-01T05:42:18;96739.81;;;20.64;72.62
25855;BME280;13680;49.936;11.344;2022-08-01T05:44:43;96745.66;;;20.62;72.73
25855;BME280;13680;49.936;11.344;2022-08-01T05:47:09;96749.53;;;20.84;72.26
25855;BME280;13680;49.936;11.344;2022-08-01T05:49:34;96752.63;;;20.83;71.56
25855;BME280;13680;49.936;11.344;2022-08-01T05:51:59;96747.38;;;20.97;71.28
25855;BME280;13680;49.936;11.344;2022-08-01T05:54:27;96749.78;;;21.02;71.29
25855;BME280;13680;49.936;11.344;2022-08-01T05:56:52;96745.91;;;21.03;71.55
25855;BME280;13680;49.936;11.344;2022-08-01T05:59:18;96750.09;;;21.24;70.55
25855;BME280;13680;49.936;11.344;2022-08-01T06:01:43;96750.31;;;21.38;68.81
25855;BME280;13680;49.936;11.344;2022-08-01T06:04:09;96743.44;;;21.52;68.09
25855;BME280;13680;49.936;11.344;2022-08-01T06:06:34;96741.31;;;21.68;67.25
25855;BME280;13680;49.936;11.344;2022-08-01T06:08:59;96741.25;;;21.65;66.87
25855;BME280;13680;49.936;11.344;2022-08-01T06:11:25;96748.47;;;21.80;66.66
25855;BME280;13680;49.936;11.344;2022-08-01T06:13:50;96747.91;;;21.98;66.80
25855;BME280;13680;49.936;11.344;2022-08-01T06:16:16;96752.00;;;22.15;66.78
25855;BME280;13680;49.936;11.344;2022-08-01T06:18:41;96746.53;;;22.18;66.73
25855;BME280;13680;49.936;11.344;2022-08-01T06:21:07;96760.31;;;22.26;67.30
25855;BME280;13680;49.936;11.344;2022-08-01T06:23:32;96757.19;;;22.27;65.88
25855;BME280;13680;49.936;11.344;2022-08-01T06:25:57;96764.81;;;22.45;65.80
25855;BME280;13680;49.936;11.344;2022-08-01T06:28:23;96759.50;;;22.63;64.30
25855;BME280;13680;49.936;11.344;2022-08-01T06:30:49;96761.13;;;22.67;64.17
25855;BME280;13680;49.936;11.344;2022-08-01T06:33:14;96757.94;;;22.65;64.61
25855;BME280;13680;49.936;11.344;2022-08-01T06:35:40;96761.47;;;22.62;64.15
25855;BME280;13680;49.936;11.344;2022-08-01T06:38:05;96769.78;;;22.77;64.43
25855;BME280;13680;49.936;11.344;2022-08-01T06:40:31;96773.75;;;22.83;64.59
25855;BME280;13680;49.936;11.344;2022-08-01T06:42:57;96768.00;;;22.95;62.48
25855;BME280;13680;49.936;11.344;2022-08-01T06:45:22;96771.94;;;23.05;62.64
25855;BME280;13680;49.936;11.344;2022-08-01T06:47:49;96779.47;;;23.12;62.16
25855;BME280;13680;49.936;11.344;2022-08-01T06:50:15;96773.25;;;23.18;62.34
25855;BME280;13680;49.936;11.344;2022-08-01T06:52:41;96775.22;;;23.21;61.36
25855;BME280;13680;49.936;11.344;2022-08-01T06:55:06;96775.66;;;23.27;61.69
25855;BME280;13680;49.936;11.344;2022-08-01T06:57:32;96776.16;;;23.47;60.13
25855;BME280;13680;49.936;11.344;2022-08-01T07:00:00;96776.47;;;23.31;60.53
25855;BME280;13680;49.936;11.344;2022-08-01T07:02:26;96776.41;;;23.24;60.60
25855;BME280;13680;49.936;11.344;2022-08-01T07:04:51;96782.34;;;23.30;60.26
25855;BME280;13680;49.936;11.344;2022-08-01T07:07:16;96777.00;;;22.96;61.30
25855;BME280;13680;49.936;11.344;2022-08-01T07:09:42;96777.56;;;23.16;60.35
25855;BME280;13680;49.936;11.344;2022-08-01T07:12:08;96776.56;;;23.49;59.59
25855;BME280;13680;49.936;11.344;2022-08-01T07:14:33;96775.84;;;23.63;59.98
25855;BME280;13680;49.936;11.344;2022-08-01T07:16:58;96776.72;;;23.82;58.97
25855;BME280;13680;49.936;11.344;2022-08-01T07:19:24;96777.59;;;24.00;58.93
25855;BME280;13680;49.936;11.344;2022-08-01T07:21:49;96765.44;;;24.05;58.24
25855;BME280;13680;49.936;11.344;2022-08-01T07:24:15;96779.59;;;24.14;58.85
25855;BME280;13680;49.936;11.344;2022-08-01T07:26:45;96772.53;;;24.13;58.56
25855;BME280;13680;49.936;11.344;2022-08-01T07:29:11;96777.22;;;24.20;57.82
25855;BME280;13680;49.936;11.344;2022-08-01T07:31:36;96776.78;;;23.96;58.00
25855;BME280;13680;49.936;11.344;2022-08-01T07:34:01;96777.66;;;24.29;57.13
25855;BME280;13680;49.936;11.344;2022-08-01T07:36:27;96778.88;;;24.50;57.05
25855;BME280;13680;49.936;11.344;2022-08-01T07:38:52;96772.25;;;24.73;56.62
25855;BME280;13680;49.936;11.344;2022-08-01T07:41:18;96769.88;;;24.89;54.80
25855;BME280;13680;49.936;11.344;2022-08-01T07:43:43;96783.09;;;24.00;57.64
25855;BME280;13680;49.936;11.344;2022-08-01T07:46:09;96776.53;;;24.52;56.07
25855;BME280;13680;49.936;11.344;2022-08-01T07:48:34;96777.72;;;24.80;55.74
25855;BME280;13680;49.936;11.344;2022-08-01T07:50:59;96783.22;;;24.80;55.03
25855;BME280;13680;49.936;11.344;2022-08-01T07:53:25;96780.06;;;24.60;54.66
25855;BME280;13680;49.936;11.344;2022-08-01T07:55:50;96776.13;;;24.61;55.39
25855;BME280;13680;49.936;11.344;2022-08-01T07:58:16;96780.41;;;24.37;56.02
25855;BME280;13680;49.936;11.344;2022-08-01T08:00:42;96776.06;;;24.21;56.53
25855;BME280;13680;49.936;11.344;2022-08-01T08:03:08;96773.75;;;24.38;56.25
25855;BME280;13680;49.936;11.344;2022-08-01T08:05:34;96768.31;;;24.81;55.13
25855;BME280;13680;49.936;11.344;2022-08-01T08:08:06;96771.41;;;25.15;55.05
25855;BME280;13680;49.936;11.344;2022-08-01T08:10:32;96767.03;;;25.54;53.53
25855;BME280;13680;49.936;11.344;2022-08-01T08:12:57;96764.72;;;25.27;53.24
25855;BME280;13680;49.936;11.344;2022-08-01T08:15:23;96765.47;;;25.53;53.32
25855;BME280;13680;49.936;11.344;2022-08-01T08:17:48;96769.31;;;25.74;52.08
25855;BME280;13680;49.936;11.344;2022-08-01T08:20:14;96781.44;;;25.91;51.27
25855;BME280;13680;49.936;11.344;2022-08-01T08:22:40;96772.75;;;26.00;50.62
25855;BME280;13680;49.936;11.344;2022-08-01T08:25:06;96755.81;;;26.65;48.79
25855;BME280;13680;49.936;11.344;2022-08-01T08:27:32;96772.06;;;25.74;51.27
25855;BME280;13680;49.936;11.344;2022-08-01T08:29:57;96770.66;;;26.25;50.08
25855;BME280;13680;49.936;11.344;2022-08-01T08:32:23;96764.13;;;26.57;49.22
25855;BME280;13680;49.936;11.344;2022-08-01T08:34:48;96762.94;;;26.62;48.60
25855;BME280;13680;49.936;11.344;2022-08-01T08:37:14;96762.88;;;26.69;49.17
25855;BME280;13680;49.936;11.344;2022-08-01T08:39:39;96769.34;;;26.44;49.71
25855;BME280;13680;49.936;11.344;2022-08-01T08:42:09;96770.16;;;26.45;49.87
25855;BME280;13680;49.936;11.344;2022-08-01T08:44:35;96775.44;;;26.18;50.00
25855;BME280;13680;49.936;11.344;2022-08-01T08:47:01;96775.25;;;25.65;51.42
25855;BME280;13680;49.936;11.344;2022-08-01T08:49:30;96775.50;;;26.07;50.64
25855;BME280;13680;49.936;11.344;2022-08-01T08:51:58;96777.28;;;26.39;50.29
25855;BME280;13680;49.936;11.344;2022-08-01T08:54:24;96780.56;;;26.16;49.72
25855;BME280;13680;49.936;11.344;2022-08-01T08:56:52;96779.84;;;26.08;50.78
25855;BME280;13680;49.936;11.344;2022-08-01T08:59:18;96782.69;;;25.75;51.05
25855;BME280;13680;49.936;11.344;2022-08-01T09:01:43;96774.34;;;25.93;51.12
25855;BME280;13680;49.936;11.344;2022-08-01T09:04:10;96769.75;;;25.69;51.47
25855;BME280;13680;49.936;11.344;2022-08-01T09:06:36;96780.81;;;25.47;51.57
25855;BME280;13680;49.936;11.344;2022-08-01T09:09:03;96775.63;;;25.71;52.26
25855;BME280;13680;49.936;11.344;2022-08-01T09:11:28;96778.81;;;25.62;52.05
25855;BME280;13680;49.936;11.344;2022-08-01T09:14:14;96777.69;;;25.23;52.68
25855;BME280;13680;49.936;11.344;2022-08-01T09:16:44;96782.00;;;25.24;52.69
25855;BME280;13680;49.936;11.344;2022-08-01T09:19:15;96781.63;;;25.37;53.30
25855;BME280;13680;49.936;11.344;2022-08-01T09:21:56;96787.44;;;25.60;52.09
25855;BME280;13680;49.936;11.344;2022-08-01T09:24:21;96784.63;;;25.82;52.12
25855;BME280;13680;49.936;11.344;2022-08-01T09:26:47;96781.44;;;25.87;51.41
25855;BME280;13680;49.936;11.344;2022-08-01T09:29:21;96787.84;;;25.66;52.58
25855;BME280;13680;49.936;11.344;2022-08-01T09:31:47;96785.66;;;26.24;52.14
25855;BME280;13680;49.936;11.344;2022-08-01T09:34:13;96784.38;;;25.33;52.39
25855;BME280;13680;49.936;11.344;2022-08-01T09:36:53;96788.00;;;26.22;50.76
25855;BME280;13680;49.936;11.344;2022-08-01T09:39:24;96782.25;;;25.91;51.22
25855;BME280;13680;49.936;11.344;2022-08-01T09:41:50;96787.91;;;25.44;51.27
25855;BME280;13680;49.936;11.344;2022-08-01T09:44:17;96788.50;;;25.99;50.94
25855;BME280;13680;49.936;11.344;2022-08-01T09:46:54;96784.88;;;26.20;51.49
25855;BME280;13680;49.936;11.344;2022-08-01T09:49:53;96793.09;;;26.27;49.38
25855;BME280;13680;49.936;11.344;2022-08-01T09:52:21;96788.22;;;25.68;51.00
25855;BME280;13680;49.936;11.344;2022-08-01T09:55:02;96799.03;;;26.26;49.67
25855;BME280;13680;49.936;11.344;2022-08-01T09:57:28;96788.94;;;26.61;49.53
25855;BME280;13680;49.936;11.344;2022-08-01T09:59:56;96797.72;;;26.45;50.01
25855;BME280;13680;49.936;11.344;2022-08-01T10:02:39;96786.81;;;26.27;50.53
25855;BME280;13680;49.936;11.344;2022-08-01T10:05:10;96789.16;;;26.28;51.77
25855;BME280;13680;49.936;11.344;2022-08-01T10:07:54;96784.09;;;26.83;49.45
25855;BME280;13680;49.936;11.344;2022-08-01T10:10:20;96789.66;;;26.76;49.02
25855;BME280;13680;49.936;11.344;2022-08-01T10:12:47;96783.25;;;26.26;50.05
25855;BME280;13680;49.936;11.344;2022-08-01T10:15:16;96776.09;;;26.96;48.30
25855;BME280;13680;49.936;11.344;2022-08-01T10:18:04;96783.63;;;27.72;46.22
25855;BME280;13680;49.936;11.344;2022-08-01T10:20:32;96782.19;;;27.18;47.43
25855;BME280;13680;49.936;11.344;2022-08-01T10:22:59;96788.19;;;27.51;47.95
25855;BME280;13680;49.936;11.344;2022-08-01T10:25:27;96786.16;;;27.55;46.47
25855;BME280;13680;49.936;11.344;2022-08-01T10:27:54;96775.06;;;27.21;47.74
25855;BME280;13680;49.936;11.344;2022-08-01T10:30:23;96776.47;;;27.40;46.88
25855;BME280;13680;49.936;11.344;2022-08-01T10:32:50;96785.47;;;27.82;46.04
25855;BME280;13680;49.936;11.344;2022-08-01T10:35:18;96771.16;;;28.49;44.60
25855;BME280;13680;49.936;11.344;2022-08-01T10:37:45;96778.53;;;28.60;42.98
25855;BME280;13680;49.936;11.344;2022-08-01T10:40:12;96777.91;;;28.48;42.59
25855;BME280;13680;49.936;11.344;2022-08-01T10:42:42;96774.19;;;28.58;43.01
25855;BME280;13680;49.936;11.344;2022-08-01T10:45:11;96768.34;;;28.25;42.92
25855;BME280;13680;49.936;11.344;2022-08-01T10:48:08;96766.50;;;27.84;44.75
25855;BME280;13680;49.936;11.344;2022-08-01T10:50:45;96775.28;;;28.10;45.15
25855;BME280;13680;49.936;11.344;2022-08-01T10:53:18;96775.84;;;27.59;45.88
25855;BME280;13680;49.936;11.344;2022-08-01T10:55:58;96788.47;;;26.77;49.54
25855;BME280;13680;49.936;11.344;2022-08-01T10:58:33;96788.13;;;26.68;49.52
25855;BME280;13680;49.936;11.344;2022-08-01T11:01:19;96789.16;;;26.28;51.36
25855;BME280;13680;49.936;11.344;2022-08-01T11:04:06;96787.28;;;26.07;52.93
25855;BME280;13680;49.936;11.344;2022-08-01T11:08:58;96786.53;;;25.92;52.65
25855;BME280;13680;49.936;11.344;2022-08-01T11:11:25;96793.28;;;25.80;52.53
25855;BME280;13680;49.936;11.344;2022-08-01T11:14:01;96787.91;;;25.19;53.46
25855;BME280;13680;49.936;11.344;2022-08-01T11:16:33;96793.81;;;25.25;54.03
25855;BME280;13680;49.936;11.344;2022-08-01T11:18:59;96791.03;;;25.50;53.29
25855;BME280;13680;49.936;11.344;2022-08-01T11:27:26;96800.50;;;25.42;53.25
25855;BME280;13680;49.936;11.344;2022-08-01T11:32:33;96802.06;;;25.39;53.21
25855;BME280;13680;49.936;11.344;2022-08-01T11:34:59;96800.44;;;25.60;53.58
25855;BME280;13680;49.936;11.344;2022-08-01T11:37:28;96800.38;;;25.74;53.47
25855;BME280;13680;49.936;11.344;2022-08-01T11:40:16;96805.53;;;25.76;52.13
25855;BME280;13680;49.936;11.344;2022-08-01T11:42:41;96801.13;;;25.93;51.97
25855;BME280;13680;49.936;11.344;2022-08-01T11:45:07;96804.97;;;26.21;50.91
25855;BME280;13680;49.936;11.344;2022-08-01T11:47:50;96803.38;;;26.20;51.79
25855;BME280;13680;49.936;11.344;2022-08-01T11:53:12;96804.59;;;26.82;50.81
25855;BME280;13680;49.936;11.344;2022-08-01T11:55:51;96807.50;;;27.09;49.19
25855;BME280;13680;49.936;11.344;2022-08-01T11:58:22;96801.06;;;27.23;48.59
25855;BME280;13680;49.936;11.344;2022-08-01T12:03:26;96795.28;;;28.21;47.51
25855;BME280;13680;49.936;11.344;2022-08-01T12:05:54;96792.78;;;29.09;42.92
25855;BME280;13680;49.936;11.344;2022-08-01T12:08:30;96788.31;;;29.39;43.07
25855;BME280;13680;49.936;11.344;2022-08-01T12:11:05;96788.59;;;29.65;43.34
25855;BME280;13680;49.936;11.344;2022-08-01T12:13:43;96777.44;;;29.48;42.16
25855;BME280;13680;49.936;11.344;2022-08-01T12:16:10;96785.53;;;28.68;42.34
25855;BME280;13680;49.936;11.344;2022-08-01T12:18:42;96777.53;;;28.46;42.86
25855;BME280;13680;49.936;11.344;2022-08-01T12:21:08;96772.97;;;28.32;45.00
25855;BME280;13680;49.936;11.344;2022-08-01T12:23:34;96775.31;;;28.37;43.48
25855;BME280;13680;49.936;11.344;2022-08-01T12:25:59;96770.72;;;28.78;42.57
25855;BME280;13680;49.936;11.344;2022-08-01T12:28:26;96767.63;;;28.76;42.31
25855;BME280;13680;49.936;11.344;2022-08-01T12:30:51;96777.59;;;27.81;44.48
25855;BME280;13680;49.936;11.344;2022-08-01T12:33:18;96774.34;;;27.89;45.39
25855;BME280;13680;49.936;11.344;2022-08-01T12:35:44;96775.81;;;27.63;45.50
25855;BME280;13680;49.936;11.344;2022-08-01T12:38:20;96768.88;;;28.44;43.82
25855;BME280;13680;49.936;11.344;2022-08-01T12:40:52;96769.38;;;29.78;42.56
25855;BME280;13680;49.936;11.344;2022-08-01T12:43:18;96761.13;;;30.31;40.60
25855;BME280;13680;49.936;11.344;2022-08-01T12:45:48;96757.97;;;30.82;41.59
25855;BME280;13680;49.936;11.344;2022-08-01T12:48:15;96749.91;;;30.71;39.40
25855;BME280;13680;49.936;11.344;2022-08-01T12:50:47;96753.19;;;30.99;38.75
25855;BME280;13680;49.936;11.344;2022-08-01T12:53:13;96756.50;;;30.77;39.23
25855;BME280;13680;49.936;11.344;2022-08-01T12:55:53;96747.66;;;30.82;37.84
25855;BME280;13680;49.936;11.344;2022-08-01T12:58:20;96748.41;;;31.45;37.93
25855;BME280;13680;49.936;11.344;2022-08-01T13:00:49;96737.97;;;31.04;36.75
25855;BME280;13680;49.936;11.344;2022-08-01T13:03:21;96743.97;;;31.02;37.35
25855;BME280;13680;49.936;11.344;2022-08-01T13:05:51;96741.78;;;30.27;38.05
25855;BME280;13680;49.936;11.344;2022-08-01T13:08:37;96753.81;;;29.20;41.22
25855;BME280;13680;49.936;11.344;2022-08-01T13:11:21;96756.44;;;29.31;41.27
25855;BME280;13680;49.936;11.344;2022-08-01T13:13:50;96756.16;;;29.21;41.12
25855;BME280;13680;49.936;11.344;2022-08-01T13:16:18;96752.75;;;28.66;42.29
25855;BME280;13680;49.936;11.344;2022-08-01T13:18:51;96752.75;;;28.39;43.27
25855;BME280;13680;49.936;11.344;2022-08-01T13:21:25;96750.91;;;28.56;43.70
25855;BME280;13680;49.936;11.344;2022-08-01T13:24:08;96744.28;;;29.45;42.52